Time;durP1;ratioP1;P1;durP2;ratioP2;P2;SDS_P1;SDS_P2;PMS_P1;PMS_P2;Temp;Humidity;BMP_temperature;BMP_pressure;BME280_temperature;BME280_humidity;BME280_pressure;Samples;Min_cycle;Max_cycle;Signal;HPM_P1;HPM_P2
2023/02/13 00:01:25;;;;;;;20.33;13.30;;;7.10;99.90;;;-141.84;89.18;18787.63;5050497;28;20190;-56
2023/02/13 00:03:53;;;;;;;19.93;13.47;;;7.10;99.90;;;-141.84;89.15;18814.03;5049525;28;20232;-56
2023/02/13 00:06:22;;;;;;;16.57;12.87;;;7.10;99.90;;;-141.84;89.28;18751.06;5049481;28;20209;-56
2023/02/13 00:08:50;;;;;;;17.10;12.57;;;7.10;99.90;;;-141.84;89.71;18777.47;5050043;28;20703;-57
2023/02/13 00:11:19;;;;;;;19.30;13.03;;;7.10;99.90;;;-141.84;89.63;18787.63;5049574;28;20791;-57
2023/02/13 00:13:48;;;;;;;19.77;13.57;;;7.10;99.90;;;-141.84;89.69;18803.88;5049557;28;20221;-57
2023/02/13 00:16:17;;;;;;;17.50;12.87;;;7.10;99.90;;;-141.84;89.57;18775.44;5049681;28;20225;-58
2023/02/13 00:18:45;;;;;;;18.90;13.17;;;7.00;99.90;;;-141.84;89.36;18765.28;5049210;28;20300;-59
2023/02/13 00:21:14;;;;;;;19.63;13.77;;;7.00;99.90;;;-141.84;89.83;18773.41;5049370;28;20365;-58
2023/02/13 00:23:42;;;;;;;20.33;14.90;;;7.00;99.90;;;-141.84;90.30;18777.47;5049230;28;20201;-56
2023/02/13 00:26:14;;;;;;;20.83;13.70;;;7.00;99.90;;;-141.84;90.75;18751.06;5048976;28;20198;-55
2023/02/13 00:28:42;;;;;;;20.00;13.20;;;6.90;99.90;;;-141.84;91.33;18740.91;5049738;28;20213;-56
2023/02/13 00:31:14;;;;;;;19.37;12.83;;;6.90;99.90;;;-141.84;91.37;18763.25;5049395;28;20661;-57
2023/02/13 00:33:44;;;;;;;20.30;13.57;;;6.90;99.90;;;-141.84;91.37;18740.91;5049218;28;20287;-56
2023/02/13 00:36:15;;;;;;;18.97;13.33;;;6.90;99.90;;;-141.84;91.22;18761.22;5049008;28;20201;-58
2023/02/13 00:38:44;;;;;;;18.63;13.40;;;6.90;99.90;;;-141.84;91.44;18740.91;5049086;28;20392;-57
2023/02/13 00:41:15;;;;;;;19.40;13.70;;;6.90;99.90;;;-141.84;91.65;18759.19;5049095;28;20201;-58
2023/02/13 00:43:43;;;;;;;21.40;14.93;;;6.90;99.90;;;-141.84;91.85;18765.28;5049544;28;20218;-57
2023/02/13 00:46:12;;;;;;;22.43;14.90;;;6.80;99.90;;;-141.84;91.86;18730.75;5049599;28;20198;-56
2023/02/13 00:48:40;;;;;;;20.40;13.83;;;6.80;99.90;;;-141.84;91.94;18773.41;5048978;28;20255;-57
2023/02/13 00:51:11;;;;;;;19.53;13.93;;;6.80;99.90;;;-141.84;92.06;18728.72;5048589;28;20217;-58
2023/02/13 00:53:39;;;;;;;17.40;12.37;;;6.80;99.90;;;-141.84;91.75;18728.72;5048529;28;20205;-56
2023/02/13 00:56:08;;;;;;;19.20;12.73;;;6.80;99.90;;;-141.84;91.85;18720.59;5048639;28;20221;-55
2023/02/13 00:58:36;;;;;;;20.23;13.70;;;6.80;99.90;;;-141.84;92.00;18742.94;5049222;28;20202;-58
2023/02/13 01:01:05;;;;;;;17.70;12.77;;;6.90;99.90;;;-141.84;92.02;18730.75;5048544;28;20248;-58
2023/02/13 01:03:33;;;;;;;21.03;13.67;;;6.80;99.90;;;-141.84;92.05;18769.34;5048791;28;20200;-54
2023/02/13 01:06:02;;;;;;;18.97;13.60;;;6.90;99.90;;;-141.84;91.53;18753.09;5048313;28;20713;-57
2023/02/13 01:08:31;;;;;;;19.60;13.77;;;6.80;99.90;;;-141.84;91.32;18738.88;5048473;28;20197;-57
2023/02/13 01:11:00;;;;;;;24.77;18.80;;;6.80;99.90;;;-141.84;91.66;18761.22;5048604;28;20204;-55
2023/02/13 01:13:28;;;;;;;23.00;17.07;;;6.80;99.90;;;-141.84;91.78;18761.22;5049277;28;20211;-56
2023/02/13 01:15:56;;;;;;;20.83;16.20;;;6.80;99.90;;;-141.84;92.17;18742.94;5047949;28;20770;-59
2023/02/13 01:18:24;;;;;;;20.10;15.90;;;6.80;99.90;;;-141.84;92.01;18714.50;5048504;28;20214;-56
2023/02/13 01:20:58;;;;;;;22.30;17.67;;;6.80;99.90;;;-141.84;92.15;18744.97;5048353;28;20212;-56
2023/02/13 01:23:32;;;;;;;25.33;20.10;;;6.80;99.90;;;-141.84;92.10;18728.72;5048312;28;20205;-58
2023/02/13 01:26:00;;;;;;;22.97;17.43;;;6.80;99.90;;;-141.84;92.01;18728.72;5048418;28;20205;-58
2023/02/13 01:28:29;;;;;;;24.37;18.00;;;6.80;99.90;;;-141.84;92.03;18742.94;5049070;28;20587;-56
2023/02/13 01:30:58;;;;;;;21.33;16.20;;;6.80;99.90;;;-141.84;91.82;18724.66;5048018;28;20727;-55
2023/02/13 01:33:29;;;;;;;23.53;16.30;;;6.80;99.90;;;-141.84;91.55;18736.84;5048195;28;20270;-56
2023/02/13 01:35:59;;;;;;;19.97;14.83;;;6.80;99.90;;;-141.84;90.94;18744.97;5048051;28;20283;-55
2023/02/13 01:38:27;;;;;;;18.33;14.17;;;6.80;99.90;;;-141.84;90.25;18785.59;5047632;28;20201;-56
2023/02/13 01:40:56;;;;;;;17.83;12.23;;;6.80;99.90;;;-141.84;89.30;18779.50;5047641;28;20732;-55
2023/02/13 01:43:42;;;;;;;19.40;14.50;;;6.80;99.90;;;-141.84;89.58;18742.94;5048973;28;20301;-55
2023/02/13 01:46:11;;;;;;;20.10;12.83;;;6.80;99.90;;;-141.84;89.64;18749.03;5048259;28;20200;-56
2023/02/13 01:48:40;;;;;;;22.40;14.23;;;6.80;99.90;;;-141.84;89.67;18759.19;5047932;28;20247;-56
2023/02/13 01:51:15;;;;;;;20.17;13.20;;;6.80;99.90;;;-141.84;89.65;18773.41;5047624;28;20211;-57
2023/02/13 01:53:50;;;;;;;19.37;12.93;;;6.80;99.90;;;-141.84;89.22;18791.69;5047736;28;20215;-58
2023/02/13 01:56:26;;;;;;;19.97;13.57;;;6.80;99.90;;;-141.84;89.15;18771.38;5047132;28;20221;-56
2023/02/13 01:59:00;;;;;;;22.13;14.70;;;6.80;99.90;;;-141.84;89.15;18781.53;5047681;28;20312;-57
2023/02/13 02:01:31;;;;;;;19.63;13.80;;;6.80;99.90;;;-141.84;89.20;18755.13;5047928;28;20188;-56
2023/02/13 02:04:07;;;;;;;22.80;13.80;;;6.80;99.90;;;-141.84;89.40;18755.13;5047532;28;20206;-54
2023/02/13 02:06:41;;;;;;;19.60;13.33;;;6.80;99.90;;;-141.84;89.73;18767.31;5047362;28;20208;-58
2023/02/13 02:09:15;;;;;;;19.37;13.73;;;6.80;99.90;;;-141.84;89.69;18769.34;5047189;28;20751;-57
2023/02/13 02:11:53;;;;;;;22.37;15.47;;;6.80;99.90;;;-141.84;89.99;18728.72;5047192;28;20196;-57
2023/02/13 02:14:22;;;;;;;20.70;15.33;;;6.80;99.90;;;-141.84;89.42;18747.00;5047249;28;20592;-57
2023/02/13 02:16:50;;;;;;;19.77;14.07;;;6.80;99.90;;;-141.84;89.11;18761.22;5046763;28;20597;-56
2023/02/13 02:19:33;;;;;;;19.90;13.73;;;6.80;99.90;;;-141.84;89.35;18744.97;5048029;28;20198;-54
2023/02/13 02:22:54;;;;;;;20.30;13.97;;;6.80;99.90;;;-141.84;88.07;18773.41;5047742;28;20208;-57
2023/02/13 02:26:07;;;;;;;19.07;13.17;;;6.80;99.90;;;-141.84;88.46;18765.28;5048108;28;20220;-56
2023/02/13 02:29:17;;;;;;;19.20;12.93;;;6.80;99.90;;;-141.84;87.88;18799.81;5048016;28;20264;-57
2023/02/13 02:32:17;;;;;;;19.90;12.73;;;6.90;99.90;;;-141.84;87.57;18777.47;5047161;28;20814;-59
2023/02/13 02:35:04;;;;;;;18.87;12.03;;;6.80;99.90;;;-141.84;87.79;18767.31;5047763;28;20189;-56
2023/02/13 02:37:59;;;;;;;20.97;11.93;;;6.80;99.90;;;-141.84;87.46;18775.44;5027598;28;20268;-56
2023/02/13 02:40:42;;;;;;;17.83;12.47;;;6.80;99.90;;;-141.84;87.66;18779.50;5028323;28;20185;-54
2023/02/13 02:43:28;;;;;;;19.07;12.30;;;6.80;99.90;;;-141.84;87.72;18753.09;5028007;28;20214;-54
2023/02/13 02:46:10;;;;;;;18.73;12.03;;;6.80;99.90;;;-141.84;88.03;18765.28;5027331;28;20220;-55
2023/02/13 02:51:48;;;;;;;19.87;13.03;;;6.80;99.90;;;-141.84;88.36;18769.34;5027367;28;20232;-58
2023/02/13 02:57:18;;;;;;;19.63;12.43;;;6.80;99.90;;;-141.84;87.95;18755.13;5027191;28;20233;-57
2023/02/13 03:13:17;;;;;;;16.77;11.93;;;6.70;99.90;;;-141.84;87.08;18777.47;5047042;28;20587;-58
2023/02/13 03:13:53;;;;;;;17.20;10.60;;;6.80;99.90;;;-141.84;86.39;18787.63;5046529;28;20292;-57
2023/02/13 03:22:23;;;;;;;16.43;9.67;;;6.70;99.90;;;-141.84;87.13;18807.94;5050546;28;20791;-59
2023/02/13 03:25:11;;;;;;;14.80;10.00;;;6.70;99.90;;;-141.84;87.65;18765.28;5050708;28;20224;-57
2023/02/13 03:30:56;;;;;;;13.77;8.67;;;6.70;99.90;;;-141.84;86.74;18785.59;5026980;28;20201;-56
2023/02/13 03:33:44;;;;;;;13.90;9.27;;;6.70;99.90;;;-141.84;86.48;18805.91;5050318;28;20279;-55
2023/02/13 03:39:23;;;;;;;11.70;8.47;;;6.70;99.90;;;-141.84;86.78;18763.25;5050165;28;20216;-55
2023/02/13 03:42:01;;;;;;;12.43;8.43;;;6.60;99.90;;;-141.84;86.80;18751.06;5050571;28;20284;-54
2023/02/13 03:44:35;;;;;;;11.50;7.70;;;6.60;99.90;;;-141.84;87.36;18753.09;5049910;28;20248;-57
2023/02/13 03:47:09;;;;;;;11.60;7.23;;;6.60;99.90;;;-141.84;85.98;18797.78;5050227;28;20197;-55
2023/02/13 03:52:36;;;;;;;9.07;6.53;;;6.60;99.90;;;-141.84;86.48;18775.44;5050728;28;20208;-56
2023/02/13 04:00:54;;;;;;;8.87;6.30;;;6.60;99.90;;;-141.84;86.37;18779.50;5049693;28;20730;-58
2023/02/13 04:03:28;;;;;;;9.27;6.37;;;6.60;99.90;;;-141.84;86.80;18775.44;5049491;28;20214;-56
2023/02/13 04:06:04;;;;;;;8.80;5.87;;;6.60;99.90;;;-141.84;86.75;18771.38;5050009;28;20258;-57
2023/02/13 04:08:32;;;;;;;7.70;5.33;;;6.60;99.90;;;-141.84;85.61;18783.56;5049746;28;20205;-55
2023/02/13 04:11:13;;;;;;;7.37;5.10;;;6.60;99.90;;;-141.84;85.84;18787.63;5050003;28;20205;-59
2023/02/13 04:13:52;;;;;;;8.10;5.97;;;6.60;99.90;;;-141.84;85.93;18728.72;5050072;28;20186;-59
2023/02/13 04:16:28;;;;;;;9.30;6.03;;;6.50;99.90;;;-141.84;85.66;18775.44;5050363;28;20229;-56
2023/02/13 04:18:59;;;;;;;8.60;6.30;;;6.50;99.90;;;-141.84;85.43;18783.56;5049779;28;20300;-58
2023/02/13 04:21:28;;;;;;;8.13;6.30;;;6.50;99.90;;;-141.84;85.72;18761.22;5049755;28;20292;-55
2023/02/13 04:23:56;;;;;;;9.60;6.10;;;6.50;99.90;;;-141.84;85.57;18781.53;5049304;28;20232;-58
2023/02/13 04:26:32;;;;;;;8.33;5.90;;;6.50;99.90;;;-141.84;85.48;18759.19;5049205;28;20202;-57
2023/02/13 04:29:01;;;;;;;8.10;5.83;;;6.50;99.90;;;-141.84;85.24;18722.63;5049549;28;20212;-56
2023/02/13 04:31:29;;;;;;;7.90;5.53;;;6.60;99.90;;;-141.84;84.43;18795.75;5050423;28;20193;-57
2023/02/13 04:33:57;;;;;;;7.00;5.13;;;6.60;99.90;;;-141.84;84.98;18761.22;5049186;28;20520;-58
2023/02/13 04:36:25;;;;;;;7.40;5.13;;;6.60;99.90;;;-141.84;85.49;18755.13;5049499;28;20232;-55
2023/02/13 04:38:54;;;;;;;7.47;5.40;;;6.60;99.90;;;-141.84;85.47;18773.41;5049188;28;20210;-56
2023/02/13 04:41:22;;;;;;;7.70;5.10;;;6.50;99.90;;;-141.84;85.86;18759.19;5049135;28;20201;-56
2023/02/13 04:43:51;;;;;;;7.90;4.67;;;6.50;99.90;;;-141.84;85.60;18753.09;5048772;28;20208;-59
2023/02/13 04:46:20;;;;;;;7.07;5.67;;;6.50;99.90;;;-141.84;85.01;18777.47;5049923;28;20208;-60
2023/02/13 04:48:48;;;;;;;8.33;5.43;;;6.50;99.90;;;-141.84;85.31;18759.19;5048823;28;20205;-56
2023/02/13 04:51:16;;;;;;;7.83;5.60;;;6.50;99.90;;;-141.84;85.83;18793.72;5049378;28;20197;-56
2023/02/13 04:53:44;;;;;;;7.40;5.63;;;6.50;99.90;;;-141.84;85.91;18797.78;5048550;28;20193;-58
2023/02/13 04:56:13;;;;;;;8.73;5.83;;;6.50;99.90;;;-141.84;86.27;18791.69;5049069;28;20232;-57
2023/02/13 04:58:41;;;;;;;8.83;6.43;;;6.50;99.90;;;-141.84;85.56;18797.78;5049233;28;20232;-58
2023/02/13 05:01:16;;;;;;;7.53;5.50;;;6.50;99.90;;;-141.84;85.97;18807.94;5049304;28;20226;-57
2023/02/13 05:03:44;;;;;;;6.87;5.37;;;6.50;99.90;;;-141.84;86.25;18761.22;5048924;28;20215;-58
2023/02/13 05:06:13;;;;;;;8.20;6.17;;;6.50;99.90;;;-141.84;86.63;18787.63;5048572;28;20201;-56
2023/02/13 05:08:41;;;;;;;10.03;5.90;;;6.50;99.90;;;-141.84;86.53;18777.47;5048402;28;20206;-56
2023/02/13 05:11:09;;;;;;;9.37;5.83;;;6.40;99.90;;;-141.84;86.89;18793.72;5048708;28;20204;-57
2023/02/13 05:13:37;;;;;;;9.93;6.00;;;6.40;99.90;;;-141.84;87.17;18757.16;5048969;28;20213;-56
2023/02/13 05:16:06;;;;;;;7.70;5.60;;;6.40;99.90;;;-141.84;87.44;18781.53;5048395;28;20236;-57
2023/02/13 05:18:36;;;;;;;9.37;6.00;;;6.40;99.90;;;-141.84;87.19;18747.00;5048530;28;20232;-59
2023/02/13 05:23:50;;;;;;;8.33;6.03;;;6.40;99.90;;;-141.84;87.15;18726.69;5048323;28;20201;-57
2023/02/13 05:26:18;;;;;;;10.60;6.53;;;6.40;99.90;;;-141.84;87.16;18749.03;5048284;28;20208;-58
2023/02/13 05:31:32;;;;;;;10.03;8.17;;;6.40;99.90;;;-141.84;87.13;18753.09;5049224;28;20186;-57
2023/02/13 05:34:01;;;;;;;10.33;7.27;;;6.40;99.90;;;-141.84;87.10;18755.13;5048514;28;20209;-59
2023/02/13 05:36:30;;;;;;;11.40;9.97;;;6.50;99.90;;;-141.84;87.46;18751.06;5040927;28;20217;-56
2023/02/13 05:38:58;;;;;;;9.17;8.10;;;6.40;99.90;;;-141.84;87.72;18728.72;5030350;28;20205;-57
2023/02/13 05:41:26;;;;;;;10.33;8.43;;;6.30;99.90;;;-141.84;87.96;18749.03;5027917;28;20205;-55
2023/02/13 05:43:54;;;;;;;12.40;9.57;;;6.30;99.90;;;-141.84;87.91;18767.31;5028088;28;20209;-61
2023/02/13 05:46:22;;;;;;;11.10;7.40;;;6.30;99.90;;;-141.84;88.08;18753.09;5028930;28;20256;-60
2023/02/13 05:48:51;;;;;;;13.00;9.33;;;6.30;99.90;;;-141.84;87.89;18783.56;5027763;28;20631;-60
2023/02/13 05:51:21;;;;;;;10.73;8.07;;;6.40;99.90;;;-141.84;87.65;18740.91;5027428;28;20706;-61
2023/02/13 05:53:49;;;;;;;10.70;7.93;;;6.40;99.90;;;-141.84;86.78;18753.09;5028180;28;20236;-61
2023/02/13 05:56:17;;;;;;;10.87;7.60;;;6.40;99.90;;;-141.84;87.00;18759.19;5027428;28;20206;-61
2023/02/13 05:58:45;;;;;;;10.50;8.20;;;6.40;99.90;;;-141.84;87.05;18773.41;5027877;28;20308;-61
2023/02/13 06:01:14;;;;;;;9.93;8.30;;;6.40;99.90;;;-141.84;86.91;18769.34;5027955;28;20625;-60
2023/02/13 06:03:42;;;;;;;11.17;7.83;;;6.40;99.90;;;-141.84;87.30;18736.84;5027329;28;20206;-62
2023/02/13 06:06:10;;;;;;;10.07;7.97;;;6.30;99.90;;;-141.84;87.58;18761.22;5038162;28;20209;-61
2023/02/13 06:08:39;;;;;;;11.33;9.87;;;6.30;99.90;;;-141.84;87.57;18744.97;5047452;28;20202;-60
2023/02/13 06:11:08;;;;;;;12.57;8.97;;;6.30;99.90;;;-141.84;87.49;18716.53;5047408;28;20259;-61
2023/02/13 06:13:39;;;;;;;10.87;8.20;;;6.20;99.90;;;-141.84;87.76;18728.72;5047995;28;20201;-62
2023/02/13 06:16:08;;;;;;;14.07;9.30;;;6.20;99.90;;;-141.84;88.06;18716.53;5047045;28;20230;-62
2023/02/13 06:18:37;;;;;;;14.43;11.23;;;6.20;99.90;;;-141.84;88.39;18730.75;5047549;28;20264;-62
2023/02/13 06:21:07;;;;;;;16.23;12.07;;;6.20;99.90;;;-141.84;88.72;18714.50;5047364;28;20205;-61
2023/02/13 06:23:35;;;;;;;13.27;11.13;;;6.20;99.90;;;-141.84;88.50;18736.84;5047172;28;20215;-60
2023/02/13 06:26:08;;;;;;;12.77;10.07;;;6.10;99.90;;;-141.84;88.43;18773.41;5047435;28;20201;-60
2023/02/13 06:28:36;;;;;;;13.10;9.40;;;6.10;99.90;;;-141.84;88.52;18757.16;5048175;28;20188;-60
2023/02/13 06:31:05;;;;;;;13.73;10.17;;;6.10;99.90;;;-141.84;88.53;18722.63;5047310;28;20235;-61
2023/02/13 06:33:33;;;;;;;15.67;10.57;;;6.10;99.90;;;-141.84;88.54;18712.47;5047270;28;20617;-62
2023/02/13 06:36:01;;;;;;;13.43;10.77;;;6.20;99.90;;;-141.84;88.88;18690.09;5047005;28;20208;-60
2023/02/13 06:38:30;;;;;;;11.50;9.37;;;6.10;99.90;;;-141.84;88.96;18710.44;5047199;28;20232;-61
2023/02/13 06:41:01;;;;;;;12.33;7.83;;;6.20;99.90;;;-141.84;88.86;18712.47;5047254;28;20228;-61
2023/02/13 06:43:31;;;;;;;12.00;7.67;;;6.20;99.90;;;-141.84;88.67;18744.97;5048419;28;20204;-60
2023/02/13 06:45:59;;;;;;;11.90;8.27;;;6.20;99.90;;;-141.84;88.53;18736.84;5046701;28;20197;-61
2023/02/13 06:48:27;;;;;;;11.10;8.20;;;6.20;99.90;;;-141.84;88.51;18700.25;5046987;28;20285;-60
2023/02/13 06:50:55;;;;;;;10.20;7.93;;;6.10;99.90;;;-141.84;88.76;18688.06;5049424;28;20216;-60
2023/02/13 06:53:24;;;;;;;10.77;7.80;;;6.10;99.90;;;-141.84;89.04;18728.72;5051537;28;20205;-61
2023/02/13 06:55:53;;;;;;;10.20;7.37;;;6.10;99.90;;;-141.84;89.10;18714.50;5050953;28;20270;-60
2023/02/13 06:58:22;;;;;;;10.07;6.77;;;6.20;99.90;;;-141.84;89.08;18730.75;5052260;28;20221;-60
2023/02/13 07:00:53;;;;;;;9.33;6.87;;;6.20;99.90;;;-141.84;88.79;18716.53;5051238;28;20205;-60
2023/02/13 07:03:21;;;;;;;10.07;7.03;;;6.20;99.90;;;-141.84;88.36;18716.53;5051262;28;20227;-61
2023/02/13 07:05:50;;;;;;;10.37;6.87;;;6.30;99.90;;;-141.84;88.29;18724.66;5050789;28;20232;-60
2023/02/13 07:08:19;;;;;;;8.40;6.43;;;6.30;99.90;;;-141.84;87.86;18716.53;5050604;28;20665;-61
2023/02/13 07:10:47;;;;;;;13.40;10.57;;;6.30;99.90;;;-141.84;87.63;18744.97;5051119;28;20609;-61
2023/02/13 07:13:15;;;;;;;10.57;9.10;;;6.40;99.90;;;-141.84;87.53;18738.88;5051535;28;20200;-62
2023/02/13 07:15:43;;;;;;;10.20;8.17;;;6.40;99.90;;;-141.84;87.51;18736.84;5050521;28;20209;-61
2023/02/13 07:18:13;;;;;;;11.10;8.90;;;6.40;99.90;;;-141.84;87.14;18744.97;5050913;28;20284;-61
2023/02/13 07:20:41;;;;;;;12.70;9.50;;;6.40;99.90;;;-141.84;86.67;18726.69;5050813;28;20205;-61
2023/02/13 07:23:10;;;;;;;9.70;7.37;;;6.50;99.90;;;-141.84;86.22;18781.53;5050831;28;20205;-60
2023/02/13 07:25:39;;;;;;;8.70;7.13;;;6.60;99.90;;;-141.84;86.12;18769.34;5051314;28;20212;-61
2023/02/13 07:28:07;;;;;;;7.83;6.43;;;6.60;99.90;;;-141.84;85.68;18775.44;5050887;28;20198;-60
2023/02/13 07:30:35;;;;;;;8.17;5.73;;;6.60;99.90;;;-141.84;85.32;18747.00;5049706;28;20209;-60
2023/02/13 07:33:05;;;;;;;7.23;5.40;;;6.70;99.90;;;-141.84;85.17;18795.75;5050510;28;20209;-62
2023/02/13 07:35:36;;;;;;;6.43;5.30;;;6.70;99.90;;;-141.84;83.29;18793.72;5050181;28;20408;-61
2023/02/13 07:38:04;;;;;;;7.30;5.20;;;6.80;99.90;;;-141.84;82.31;18793.72;5050501;28;20231;-61
2023/02/13 07:40:33;;;;;;;7.70;6.10;;;6.80;99.90;;;-141.84;82.29;18830.31;5051558;28;20251;-62
2023/02/13 07:43:02;;;;;;;6.87;6.07;;;6.90;99.90;;;-141.84;81.80;18812.00;5050803;28;20201;-62
2023/02/13 07:45:30;;;;;;;8.03;5.93;;;7.00;99.90;;;-141.84;81.34;18799.81;5050472;28;20208;-61
2023/02/13 07:47:59;;;;;;;8.00;7.20;;;7.00;99.90;;;-141.84;81.11;18824.22;5050123;28;20201;-61
2023/02/13 07:50:29;;;;;;;10.50;7.17;;;7.00;99.90;;;-141.84;80.67;18850.63;5050057;28;20668;-62
2023/02/13 07:53:00;;;;;;;7.70;6.90;;;7.10;99.90;;;-141.84;80.62;18852.66;5049875;28;20197;-60
2023/02/13 07:55:31;;;;;;;9.77;7.90;;;7.10;99.90;;;-141.84;80.78;18854.69;5050877;28;20625;-63
2023/02/13 07:58:00;;;;;;;9.07;7.50;;;7.20;99.90;;;-141.84;80.21;18836.41;5050818;28;20529;-61
2023/02/13 08:00:29;;;;;;;9.50;8.27;;;7.20;99.90;;;-141.84;79.90;18893.28;5050077;28;20490;-61
2023/02/13 08:02:59;;;;;;;9.00;7.40;;;7.20;99.90;;;-141.84;79.20;18858.75;5049001;28;20294;-61
2023/02/13 08:05:28;;;;;;;10.90;8.23;;;7.20;99.90;;;-141.84;77.83;18907.50;5050258;28;20209;-61
2023/02/13 08:07:58;;;;;;;8.13;7.13;;;7.30;99.90;;;-141.84;76.88;18927.84;5049864;28;20205;-61
2023/02/13 08:13:14;;;;;;;9.40;6.70;;;7.40;99.90;;;-141.84;77.42;18897.34;5050590;28;20220;-61
2023/02/13 08:15:43;;;;;;;9.80;6.73;;;7.40;99.90;;;-141.84;76.13;18960.34;5049378;28;20216;-61
2023/02/13 08:18:12;;;;;;;8.53;6.70;;;7.40;99.90;;;-141.84;75.69;18944.09;5049727;28;20308;-61
2023/02/13 08:20:40;;;;;;;8.60;6.50;;;7.50;99.90;;;-141.84;76.23;18958.31;5049475;28;20705;-61
2023/02/13 08:23:11;;;;;;;8.87;6.83;;;7.50;99.90;;;-141.84;76.48;18931.91;5049575;28;20197;-61
2023/02/13 08:25:40;;;;;;;8.10;6.43;;;7.40;99.90;;;-141.84;75.53;18909.53;5050072;28;20213;-62
2023/02/13 08:28:08;;;;;;;7.57;5.90;;;7.50;99.90;;;-141.84;75.26;18976.59;5049833;28;20596;-60
2023/02/13 08:30:37;;;;;;;7.93;6.07;;;7.60;99.90;;;-141.84;75.26;18956.28;5049747;28;20209;-61
2023/02/13 08:33:05;;;;;;;6.13;5.43;;;7.60;99.90;;;-141.84;74.36;18966.44;5049434;28;20205;-61
2023/02/13 08:35:33;;;;;;;7.90;6.23;;;7.60;99.90;;;-141.84;73.70;18980.66;5049043;28;20220;-61
2023/02/13 08:38:05;;;;;;;6.40;5.50;;;7.60;99.90;;;-141.84;74.68;18986.75;5049122;28;20225;-63
2023/02/13 08:40:35;;;;;;;6.97;6.00;;;7.70;99.90;;;-141.84;73.55;18950.19;5049762;28;20573;-60
2023/02/13 08:43:07;;;;;;;7.07;6.37;;;7.70;99.90;;;-141.84;73.85;18964.41;5049450;28;20198;-62
2023/02/13 08:45:36;;;;;;;8.10;6.87;;;7.70;99.90;;;-141.84;74.04;19003.00;5048980;28;20201;-61
2023/02/13 08:48:06;;;;;;;6.57;5.87;;;7.60;99.90;;;-141.84;73.85;18978.63;5049095;28;20262;-61
2023/02/13 08:50:34;;;;;;;6.93;6.07;;;7.60;99.90;;;-141.84;74.01;19027.41;5049125;28;20668;-61
2023/02/13 08:53:05;;;;;;;8.03;6.40;;;7.60;99.90;;;-141.84;74.69;18954.25;5048798;28;20664;-60
2023/02/13 08:55:34;;;;;;;8.40;7.07;;;7.60;99.90;;;-141.84;74.57;19005.03;5049855;28;20205;-61
2023/02/13 08:58:04;;;;;;;7.93;6.50;;;7.60;99.90;;;-141.84;73.16;19047.72;5049528;28;20375;-63
2023/02/13 09:00:32;;;;;;;7.17;6.47;;;7.70;99.90;;;-141.84;73.95;18988.78;5049056;28;20211;-61
2023/02/13 09:03:02;;;;;;;7.77;6.47;;;7.60;99.90;;;-141.84;73.86;18958.31;5048857;28;20205;-61
2023/02/13 09:05:31;;;;;;;7.80;6.47;;;7.60;99.90;;;-141.84;72.29;19053.81;5048853;28;20209;-60
2023/02/13 09:08:02;;;;;;;8.00;6.60;;;7.70;99.90;;;-141.84;73.15;19035.53;5048458;28;20595;-61
2023/02/13 09:10:31;;;;;;;7.10;6.17;;;7.70;99.90;;;-141.84;73.24;19005.03;5049911;28;20182;-61
2023/02/13 09:13:01;;;;;;;7.30;6.23;;;7.80;99.90;;;-141.84;73.92;19021.31;5048666;28;20205;-61
2023/02/13 09:15:29;;;;;;;8.30;6.57;;;7.60;99.90;;;-141.84;74.73;18988.78;5048208;28;20292;-62
2023/02/13 09:17:58;;;;;;;7.83;6.30;;;7.60;99.90;;;-141.84;74.49;19005.03;5048245;28;20669;-61
2023/02/13 09:20:26;;;;;;;7.73;6.30;;;7.60;99.90;;;-141.84;74.82;18978.63;5048589;28;20216;-61
2023/02/13 09:22:56;;;;;;;9.63;6.73;;;7.50;99.90;;;-141.84;74.54;18994.88;5048309;28;20292;-61
2023/02/13 09:25:24;;;;;;;8.60;7.10;;;7.60;99.90;;;-141.84;74.90;18982.69;5049330;28;20197;-60
2023/02/13 09:27:52;;;;;;;7.53;6.27;;;7.60;99.90;;;-141.84;74.87;19000.97;5047941;28;20670;-61
2023/02/13 09:30:25;;;;;;;8.10;5.97;;;7.70;99.90;;;-141.84;74.38;19035.53;5048137;28;20197;-60
2023/02/13 09:32:54;;;;;;;7.73;5.80;;;7.70;99.90;;;-141.84;73.94;18998.94;5048288;28;20205;-61
2023/02/13 09:35:23;;;;;;;7.60;6.03;;;7.80;99.90;;;-141.84;73.43;19009.09;5048096;28;20209;-62
2023/02/13 09:37:51;;;;;;;8.77;6.67;;;7.80;99.90;;;-141.84;73.08;19045.69;5048237;28;20209;-60
2023/02/13 09:40:28;;;;;;;8.63;6.73;;;7.90;99.90;;;-141.84;72.89;19074.13;5048733;28;20650;-61
2023/02/13 09:43:07;;;;;;;8.17;6.30;;;7.80;99.90;;;-141.84;71.54;19045.69;5048130;28;20696;-62
2023/02/13 09:45:38;;;;;;;7.40;6.27;;;7.80;99.90;;;-141.84;71.56;19070.06;5048045;28;20653;-62
2023/02/13 09:48:16;;;;;;;7.63;6.23;;;7.90;99.90;;;-141.84;71.09;19074.13;5047935;28;20577;-62
2023/02/13 09:50:44;;;;;;;7.57;6.40;;;8.10;99.90;;;-141.84;71.97;19055.84;5047618;28;20212;-61
2023/02/13 09:53:22;;;;;;;9.43;7.37;;;8.00;99.90;;;-141.84;72.58;19076.16;5047715;28;20226;-62
2023/02/13 09:56:05;;;;;;;9.40;7.47;;;7.90;99.90;;;-141.84;73.36;19045.69;5048188;28;20201;-61
2023/02/13 09:58:44;;;;;;;9.80;6.80;;;7.80;99.90;;;-141.84;72.57;19066.00;5048426;28;20246;-61
2023/02/13 10:01:29;;;;;;;8.57;6.40;;;7.90;99.90;;;-141.84;72.46;19068.03;5048394;28;20208;-61
2023/02/13 10:04:22;;;;;;;9.07;7.20;;;8.00;99.90;;;-141.84;70.96;19092.41;5047986;28;20247;-61
2023/02/13 10:07:07;;;;;;;10.23;7.43;;;8.10;99.90;;;-141.84;71.24;19116.81;5047755;28;20197;-60
2023/02/13 10:09:47;;;;;;;7.77;6.30;;;8.10;99.90;;;-141.84;71.51;19084.28;5047754;28;20197;-62
2023/02/13 10:12:36;;;;;;;7.73;6.27;;;8.10;99.90;;;-141.84;71.71;19088.34;5048027;28;20209;-60
2023/02/13 10:15:25;;;;;;;9.60;6.70;;;8.00;99.90;;;-141.84;72.27;19043.66;5047398;28;20202;-62
2023/02/13 10:18:03;;;;;;;8.50;6.87;;;7.90;99.90;;;-141.84;72.52;19084.28;5047384;28;20237;-61
2023/02/13 10:20:39;;;;;;;6.87;5.93;;;8.00;99.90;;;-141.84;72.34;19106.66;5047466;28;20228;-61
2023/02/13 10:23:21;;;;;;;6.20;5.53;;;8.00;99.90;;;-141.84;72.90;19039.59;5047513;28;20267;-63
2023/02/13 10:25:56;;;;;;;6.73;5.47;;;7.90;99.90;;;-141.84;72.43;19053.81;5047268;28;21013;-60
2023/02/13 10:28:38;;;;;;;7.03;5.43;;;8.00;99.90;;;-141.84;71.86;19082.25;5048494;28;20193;-61
2023/02/13 10:31:12;;;;;;;6.90;5.90;;;7.90;99.90;;;-141.84;72.32;19110.72;5047707;28;20197;-60
2023/02/13 10:33:50;;;;;;;7.80;5.63;;;8.00;99.90;;;-141.84;71.08;19131.03;5047204;28;20259;-61
2023/02/13 10:36:23;;;;;;;6.37;5.07;;;8.10;99.90;;;-141.84;70.57;19112.75;5047292;28;20212;-61
2023/02/13 10:39:00;;;;;;;5.47;4.53;;;8.20;99.90;;;-141.84;70.13;19139.16;5047560;28;20262;-61
2023/02/13 10:41:49;;;;;;;5.60;4.97;;;8.30;99.90;;;-141.84;70.71;19145.25;5047246;28;20669;-61
2023/02/13 10:44:43;;;;;;;5.70;4.40;;;8.30;99.90;;;-141.84;70.08;19108.69;5047250;28;20209;-61
2023/02/13 10:47:33;;;;;;;4.40;4.00;;;8.40;99.90;;;-141.84;69.08;19181.81;5047425;28;20266;-63
2023/02/13 10:50:22;;;;;;;4.93;4.10;;;8.50;99.90;;;-141.84;68.46;19194.03;5047126;28;20307;-62
2023/02/13 10:53:04;;;;;;;4.70;4.27;;;8.70;99.90;;;-141.84;68.44;19230.59;5046875;28;20691;-62
2023/02/13 10:56:06;;;;;;;4.80;4.30;;;8.60;99.90;;;-141.84;69.16;19181.81;5047786;28;20557;-61
2023/02/13 10:58:55;;;;;;;5.63;3.90;;;8.60;99.90;;;-141.84;68.76;19228.56;5047678;28;20197;-60
2023/02/13 11:01:31;;;;;;;5.73;3.97;;;8.60;99.90;;;-141.84;68.52;19212.31;5047473;28;20671;-61
2023/02/13 11:04:08;;;;;;;3.73;3.43;;;8.70;99.90;;;-141.84;68.73;19171.66;5047427;28;20223;-60
2023/02/13 11:06:43;;;;;;;3.67;3.33;;;8.60;99.90;;;-141.84;68.38;19200.13;5046665;28;20209;-61
2023/02/13 11:09:12;;;;;;;3.80;3.40;;;8.70;99.90;;;-141.84;68.11;19175.72;5046958;28;20216;-62
2023/02/13 11:11:42;;;;;;;3.50;3.20;;;8.60;99.90;;;-141.84;68.41;19177.75;5046505;28;20665;-63
2023/02/13 11:14:15;;;;;;;3.00;2.80;;;8.60;99.90;;;-141.84;68.17;19196.06;5046880;28;20209;-61
2023/02/13 11:16:57;;;;;;;3.77;3.37;;;8.60;99.90;;;-141.84;68.36;19198.09;5046721;28;20233;-61